Millbury, Ohio
Current Conditions -  °F | °C
As of 12:53 PM on Thursday 23 Oct 2014 (Local Time) from KTDZ Reporting Station
Clear Clear  
Wind Chill: 53°   Ceiling: Unl
Heat Index: 53°   Visibility: 10mi
Dew Point: 39°   Wind: 5mph
Humidity: 59%   Direction: 230°SW
Pressure: 30.23"   Gusts: NA
Location:  41.57°N, 83.42°W
Report Text: KTDZ 231653Z AUTO 23004KT 10SM CLR 12/04 A3023 RMK AO2 SLP241 T01170039 TSNO
Loading
Personal Weather Stations






























Interactive Weather Map
Tropical Storm Tracking
New forecast layout! Learn more

10-Day Weather Forecast

Advertisements
Track Severe Weather on mobile